sensor_id;sensor_type;location;lat;lon;timestamp;temperature;humidity
52849;DHT22;38714;53.180;5.812;2023-02-15T00:01:42;2.30;99.90
52849;DHT22;38714;53.180;5.812;2023-02-15T00:04:08;2.30;99.90
52849;DHT22;38714;53.180;5.812;2023-02-15T00:06:34;2.20;99.90
52849;DHT22;38714;53.180;5.812;2023-02-15T00:09:01;2.20;99.90
52849;DHT22;38714;53.180;5.812;2023-02-15T00:11:26;2.10;99.90
52849;DHT22;38714;53.180;5.812;2023-02-15T00:16:37;2.10;99.90
52849;DHT22;38714;53.180;5.812;2023-02-15T00:19:03;2.00;99.90
52849;DHT22;38714;53.180;5.812;2023-02-15T00:21:30;2.00;99.90
52849;DHT22;38714;53.180;5.812;2023-02-15T00:23:58;2.00;99.90
52849;DHT22;38714;53.180;5.812;2023-02-15T00:26:24;2.00;99.90
52849;DHT22;38714;53.180;5.812;2023-02-15T00:28:50;2.00;99.90
52849;DHT22;38714;53.180;5.812;2023-02-15T00:31:16;2.00;99.90
52849;DHT22;38714;53.180;5.812;2023-02-15T00:33:41;1.90;99.90
52849;DHT22;38714;53.180;5.812;2023-02-15T00:36:11;1.90;99.90
52849;DHT22;38714;53.180;5.812;2023-02-15T00:38:37;1.90;99.90
52849;DHT22;38714;53.180;5.812;2023-02-15T00:41:05;1.90;99.90
52849;DHT22;38714;53.180;5.812;2023-02-15T00:43:32;1.80;99.90
52849;DHT22;38714;53.180;5.812;2023-02-15T00:45:58;1.80;99.90
52849;DHT22;38714;53.180;5.812;2023-02-15T00:48:24;1.80;99.90
52849;DHT22;38714;53.180;5.812;2023-02-15T00:50:52;1.70;99.90
52849;DHT22;38714;53.180;5.812;2023-02-15T00:53:18;1.70;99.90
52849;DHT22;38714;53.180;5.812;2023-02-15T00:55:44;1.70;99.90
52849;DHT22;38714;53.180;5.812;2023-02-15T00:58:11;1.60;99.90
52849;DHT22;38714;53.180;5.812;2023-02-15T01:00:37;1.60;99.90
52849;DHT22;38714;53.180;5.812;2023-02-15T01:03:04;1.60;99.90
52849;DHT22;38714;53.180;5.812;2023-02-15T01:05:30;1.50;99.90
52849;DHT22;38714;53.180;5.812;2023-02-15T01:07:56;1.50;99.90
52849;DHT22;38714;53.180;5.812;2023-02-15T01:10:22;1.50;99.90
52849;DHT22;38714;53.180;5.812;2023-02-15T01:12:48;1.50;99.90
52849;DHT22;38714;53.180;5.812;2023-02-15T01:15:14;1.50;99.90
52849;DHT22;38714;53.180;5.812;2023-02-15T01:17:40;1.50;99.90
52849;DHT22;38714;53.180;5.812;2023-02-15T01:20:06;1.40;99.90
52849;DHT22;38714;53.180;5.812;2023-02-15T01:22:32;1.40;99.90
52849;DHT22;38714;53.180;5.812;2023-02-15T01:24:58;1.40;99.90
52849;DHT22;38714;53.180;5.812;2023-02-15T01:27:23;1.40;99.90
52849;DHT22;38714;53.180;5.812;2023-02-15T01:29:49;1.40;99.90
52849;DHT22;38714;53.180;5.812;2023-02-15T01:32:14;1.40;99.90
52849;DHT22;38714;53.180;5.812;2023-02-15T01:34:40;1.30;99.90
52849;DHT22;38714;53.180;5.812;2023-02-15T01:37:06;1.40;99.90
52849;DHT22;38714;53.180;5.812;2023-02-15T01:39:31;1.30;99.90
52849;DHT22;38714;53.180;5.812;2023-02-15T01:41:57;1.30;99.90
52849;DHT22;38714;53.180;5.812;2023-02-15T01:47:22;1.40;99.90
52849;DHT22;38714;53.180;5.812;2023-02-15T01:52:39;1.30;99.90
52849;DHT22;38714;53.180;5.812;2023-02-15T01:55:06;1.30;99.90
52849;DHT22;38714;53.180;5.812;2023-02-15T01:57:33;1.30;99.90
52849;DHT22;38714;53.180;5.812;2023-02-15T02:00:00;1.30;99.90
52849;DHT22;38714;53.180;5.812;2023-02-15T02:02:28;1.20;99.90
52849;DHT22;38714;53.180;5.812;2023-02-15T02:05:00;1.20;99.90
52849;DHT22;38714;53.180;5.812;2023-02-15T02:07:33;1.20;99.90
52849;DHT22;38714;53.180;5.812;2023-02-15T02:10:01;1.10;99.90
52849;DHT22;38714;53.180;5.812;2023-02-15T02:12:27;1.10;99.90
52849;DHT22;38714;53.180;5.812;2023-02-15T02:14:54;1.10;99.90
52849;DHT22;38714;53.180;5.812;2023-02-15T02:28:50;1.10;99.90
52849;DHT22;38714;53.180;5.812;2023-02-15T02:36:55;1.10;99.90
52849;DHT22;38714;53.180;5.812;2023-02-15T02:44:57;1.10;99.90
52849;DHT22;38714;53.180;5.812;2023-02-15T02:47:45;1.10;99.90
52849;DHT22;38714;53.180;5.812;2023-02-15T02:50:22;1.10;99.90
52849;DHT22;38714;53.180;5.812;2023-02-15T02:52:53;1.00;99.90
52849;DHT22;38714;53.180;5.812;2023-02-15T02:55:26;1.00;99.90
52849;DHT22;38714;53.180;5.812;2023-02-15T03:00:57;1.00;99.90
52849;DHT22;38714;53.180;5.812;2023-02-15T03:03:40;1.00;99.90
52849;DHT22;38714;53.180;5.812;2023-02-15T03:06:11;1.00;99.90
52849;DHT22;38714;53.180;5.812;2023-02-15T03:08:41;0.90;99.90
52849;DHT22;38714;53.180;5.812;2023-02-15T03:11:08;1.00;99.90
52849;DHT22;38714;53.180;5.812;2023-02-15T03:13:34;1.00;99.90
52849;DHT22;38714;53.180;5.812;2023-02-15T03:16:01;0.90;99.90
52849;DHT22;38714;53.180;5.812;2023-02-15T03:18:49;0.90;99.90
52849;DHT22;38714;53.180;5.812;2023-02-15T03:21:21;0.90;99.90
52849;DHT22;38714;53.180;5.812;2023-02-15T03:23:54;0.90;99.90
52849;DHT22;38714;53.180;5.812;2023-02-15T03:26:21;0.90;99.90
52849;DHT22;38714;53.180;5.812;2023-02-15T03:28:50;0.90;99.90
52849;DHT22;38714;53.180;5.812;2023-02-15T03:31:18;0.90;99.90
52849;DHT22;38714;53.180;5.812;2023-02-15T03:34:02;0.90;99.90
52849;DHT22;38714;53.180;5.812;2023-02-15T03:39:28;0.90;99.90
52849;DHT22;38714;53.180;5.812;2023-02-15T03:42:00;0.90;99.90
52849;DHT22;38714;53.180;5.812;2023-02-15T03:44:30;0.80;99.90
52849;DHT22;38714;53.180;5.812;2023-02-15T03:47:02;0.80;99.90
52849;DHT22;38714;53.180;5.812;2023-02-15T03:49:54;0.80;99.90
52849;DHT22;38714;53.180;5.812;2023-02-15T03:52:21;0.80;99.90
52849;DHT22;38714;53.180;5.812;2023-02-15T03:54:49;0.80;99.90
52849;DHT22;38714;53.180;5.812;2023-02-15T04:00:11;0.70;99.90
52849;DHT22;38714;53.180;5.812;2023-02-15T04:03:19;0.70;99.90
52849;DHT22;38714;53.180;5.812;2023-02-15T04:05:47;0.70;99.90
52849;DHT22;38714;53.180;5.812;2023-02-15T04:08:13;0.70;99.90
52849;DHT22;38714;53.180;5.812;2023-02-15T04:10:39;0.70;99.90
52849;DHT22;38714;53.180;5.812;2023-02-15T04:13:30;0.70;99.90
52849;DHT22;38714;53.180;5.812;2023-02-15T04:15:56;0.70;99.90
52849;DHT22;38714;53.180;5.812;2023-02-15T04:18:39;0.70;99.90
52849;DHT22;38714;53.180;5.812;2023-02-15T04:21:25;0.60;99.90
52849;DHT22;38714;53.180;5.812;2023-02-15T04:24:11;0.70;99.90
52849;DHT22;38714;53.180;5.812;2023-02-15T04:26:56;0.60;99.90
52849;DHT22;38714;53.180;5.812;2023-02-15T04:29:23;0.70;99.90
52849;DHT22;38714;53.180;5.812;2023-02-15T04:31:49;0.60;99.90
52849;DHT22;38714;53.180;5.812;2023-02-15T04:34:15;0.70;99.90
52849;DHT22;38714;53.180;5.812;2023-02-15T04:36:41;0.60;99.90
52849;DHT22;38714;53.180;5.812;2023-02-15T04:39:07;0.70;99.90
52849;DHT22;38714;53.180;5.812;2023-02-15T04:41:34;0.60;99.90
52849;DHT22;38714;53.180;5.812;2023-02-15T04:44:00;0.60;99.90
52849;DHT22;38714;53.180;5.812;2023-02-15T04:46:27;0.70;99.90
52849;DHT22;38714;53.180;5.812;2023-02-15T04:48:53;0.60;99.90
52849;DHT22;38714;53.180;5.812;2023-02-15T04:51:19;0.70;99.90
52849;DHT22;38714;53.180;5.812;2023-02-15T04:53:45;0.60;99.90
52849;DHT22;38714;53.180;5.812;2023-02-15T04:56:10;0.60;99.90
52849;DHT22;38714;53.180;5.812;2023-02-15T04:58:36;0.60;99.90
52849;DHT22;38714;53.180;5.812;2023-02-15T05:01:02;0.60;99.90
52849;DHT22;38714;53.180;5.812;2023-02-15T05:03:28;0.60;99.90
52849;DHT22;38714;53.180;5.812;2023-02-15T05:05:54;0.60;99.90
52849;DHT22;38714;53.180;5.812;2023-02-15T05:08:20;0.60;99.90
52849;DHT22;38714;53.180;5.812;2023-02-15T05:10:48;0.60;99.90
52849;DHT22;38714;53.180;5.812;2023-02-15T05:13:14;0.60;99.90
52849;DHT22;38714;53.180;5.812;2023-02-15T05:15:39;0.60;99.90
52849;DHT22;38714;53.180;5.812;2023-02-15T05:18:05;0.60;99.90
52849;DHT22;38714;53.180;5.812;2023-02-15T05:20:31;0.60;99.90
52849;DHT22;38714;53.180;5.812;2023-02-15T05:22:57;0.60;99.90
52849;DHT22;38714;53.180;5.812;2023-02-15T05:25:22;0.60;99.90
52849;DHT22;38714;53.180;5.812;2023-02-15T05:28:10;0.60;99.90
52849;DHT22;38714;53.180;5.812;2023-02-15T05:30:46;0.60;99.90
52849;DHT22;38714;53.180;5.812;2023-02-15T05:33:12;0.50;99.90
52849;DHT22;38714;53.180;5.812;2023-02-15T05:35:37;0.50;99.90
52849;DHT22;38714;53.180;5.812;2023-02-15T05:38:03;0.50;99.90
52849;DHT22;38714;53.180;5.812;2023-02-15T05:40:29;0.60;99.90
52849;DHT22;38714;53.180;5.812;2023-02-15T05:42:56;0.50;99.90
52849;DHT22;38714;53.180;5.812;2023-02-15T05:45:21;0.50;99.90
52849;DHT22;38714;53.180;5.812;2023-02-15T05:47:47;0.50;99.90
52849;DHT22;38714;53.180;5.812;2023-02-15T05:50:13;0.50;99.90
52849;DHT22;38714;53.180;5.812;2023-02-15T05:52:38;0.50;99.90
52849;DHT22;38714;53.180;5.812;2023-02-15T05:55:04;0.50;99.90
52849;DHT22;38714;53.180;5.812;2023-02-15T05:57:30;0.50;99.90
52849;DHT22;38714;53.180;5.812;2023-02-15T05:59:56;0.50;99.90
52849;DHT22;38714;53.180;5.812;2023-02-15T06:02:22;0.50;99.90
52849;DHT22;38714;53.180;5.812;2023-02-15T06:04:47;0.50;99.90
52849;DHT22;38714;53.180;5.812;2023-02-15T06:07:13;0.50;99.90
52849;DHT22;38714;53.180;5.812;2023-02-15T06:09:39;0.50;99.90
52849;DHT22;38714;53.180;5.812;2023-02-15T06:12:04;0.50;99.90
52849;DHT22;38714;53.180;5.812;2023-02-15T06:14:30;0.50;99.90
52849;DHT22;38714;53.180;5.812;2023-02-15T06:16:59;0.50;99.90
52849;DHT22;38714;53.180;5.812;2023-02-15T06:19:24;0.50;99.90
52849;DHT22;38714;53.180;5.812;2023-02-15T06:21:50;0.50;99.90
52849;DHT22;38714;53.180;5.812;2023-02-15T06:24:16;0.50;99.90
52849;DHT22;38714;53.180;5.812;2023-02-15T06:26:41;0.50;99.90
52849;DHT22;38714;53.180;5.812;2023-02-15T06:29:07;0.50;99.90
52849;DHT22;38714;53.180;5.812;2023-02-15T06:31:33;0.60;99.90
52849;DHT22;38714;53.180;5.812;2023-02-15T06:33:58;0.60;99.90
52849;DHT22;38714;53.180;5.812;2023-02-15T06:36:30;0.60;99.90
52849;DHT22;38714;53.180;5.812;2023-02-15T06:38:56;0.60;99.90
52849;DHT22;38714;53.180;5.812;2023-02-15T06:41:22;0.60;99.90
52849;DHT22;38714;53.180;5.812;2023-02-15T06:43:49;0.60;99.90
52849;DHT22;38714;53.180;5.812;2023-02-15T06:46:15;0.60;99.90
52849;DHT22;38714;53.180;5.812;2023-02-15T06:48:40;0.60;99.90
52849;DHT22;38714;53.180;5.812;2023-02-15T06:51:06;0.60;99.90
52849;DHT22;38714;53.180;5.812;2023-02-15T06:53:31;0.60;99.90
52849;DHT22;38714;53.180;5.812;2023-02-15T06:56:02;0.60;99.90
52849;DHT22;38714;53.180;5.812;2023-02-15T06:58:28;0.60;99.90
52849;DHT22;38714;53.180;5.812;2023-02-15T07:00:54;0.60;99.90
52849;DHT22;38714;53.180;5.812;2023-02-15T07:03:19;0.70;99.90
52849;DHT22;38714;53.180;5.812;2023-02-15T07:05:45;0.70;99.90
52849;DHT22;38714;53.180;5.812;2023-02-15T07:08:12;0.70;99.90
52849;DHT22;38714;53.180;5.812;2023-02-15T07:10:38;0.70;99.90
52849;DHT22;38714;53.180;5.812;2023-02-15T07:13:04;0.70;99.90
52849;DHT22;38714;53.180;5.812;2023-02-15T07:15:29;0.70;99.90
52849;DHT22;38714;53.180;5.812;2023-02-15T07:17:57;0.70;99.90
52849;DHT22;38714;53.180;5.812;2023-02-15T07:20:23;0.70;99.90
52849;DHT22;38714;53.180;5.812;2023-02-15T07:22:50;0.80;99.90
52849;DHT22;38714;53.180;5.812;2023-02-15T07:25:16;0.80;99.90
52849;DHT22;38714;53.180;5.812;2023-02-15T07:27:42;0.80;99.90
52849;DHT22;38714;53.180;5.812;2023-02-15T07:30:11;0.90;99.90
52849;DHT22;38714;53.180;5.812;2023-02-15T07:32:37;0.90;99.90
52849;DHT22;38714;53.180;5.812;2023-02-15T07:35:22;0.90;99.90
52849;DHT22;38714;53.180;5.812;2023-02-15T07:37:48;0.90;99.90
52849;DHT22;38714;53.180;5.812;2023-02-15T07:40:13;0.90;99.90
52849;DHT22;38714;53.180;5.812;2023-02-15T07:42:39;0.90;99.90
52849;DHT22;38714;53.180;5.812;2023-02-15T07:45:05;0.90;99.90
52849;DHT22;38714;53.180;5.812;2023-02-15T07:47:30;1.00;99.90
52849;DHT22;38714;53.180;5.812;2023-02-15T07:49:56;0.90;99.90
52849;DHT22;38714;53.180;5.812;2023-02-15T07:52:21;1.00;99.90
52849;DHT22;38714;53.180;5.812;2023-02-15T07:54:47;1.00;99.90
52849;DHT22;38714;53.180;5.812;2023-02-15T07:57:12;1.00;99.90
52849;DHT22;38714;53.180;5.812;2023-02-15T07:59:38;1.10;99.90
52849;DHT22;38714;53.180;5.812;2023-02-15T08:02:08;1.10;99.90
52849;DHT22;38714;53.180;5.812;2023-02-15T08:04:34;1.10;99.90
52849;DHT22;38714;53.180;5.812;2023-02-15T08:07:00;1.10;99.90
52849;DHT22;38714;53.180;5.812;2023-02-15T08:09:25;1.10;99.90
52849;DHT22;38714;53.180;5.812;2023-02-15T08:11:51;1.20;99.90
52849;DHT22;38714;53.180;5.812;2023-02-15T08:14:20;1.20;99.90
52849;DHT22;38714;53.180;5.812;2023-02-15T08:16:51;1.20;99.90
52849;DHT22;38714;53.180;5.812;2023-02-15T08:19:20;1.30;99.90
52849;DHT22;38714;53.180;5.812;2023-02-15T08:21:59;1.30;99.90
52849;DHT22;38714;53.180;5.812;2023-02-15T08:24:27;1.30;99.90
52849;DHT22;38714;53.180;5.812;2023-02-15T08:26:53;1.30;99.90
52849;DHT22;38714;53.180;5.812;2023-02-15T08:29:21;1.40;99.90
52849;DHT22;38714;53.180;5.812;2023-02-15T08:31:48;1.40;99.90
52849;DHT22;38714;53.180;5.812;2023-02-15T08:34:16;1.40;99.90
52849;DHT22;38714;53.180;5.812;2023-02-15T08:36:43;1.50;99.90
52849;DHT22;38714;53.180;5.812;2023-02-15T08:39:11;1.50;99.90
52849;DHT22;38714;53.180;5.812;2023-02-15T08:41:41;1.60;99.90
52849;DHT22;38714;53.180;5.812;2023-02-15T08:44:07;1.60;99.90
52849;DHT22;38714;53.180;5.812;2023-02-15T08:46:39;1.60;99.90
52849;DHT22;38714;53.180;5.812;2023-02-15T08:49:05;1.70;99.90
52849;DHT22;38714;53.180;5.812;2023-02-15T08:51:32;1.70;99.90
52849;DHT22;38714;53.180;5.812;2023-02-15T08:54:02;1.70;99.90
52849;DHT22;38714;53.180;5.812;2023-02-15T08:56:31;1.80;99.90
52849;DHT22;38714;53.180;5.812;2023-02-15T08:58:57;1.80;99.90
52849;DHT22;38714;53.180;5.812;2023-02-15T09:01:29;1.80;99.90
52849;DHT22;38714;53.180;5.812;2023-02-15T09:04:00;1.90;99.90
52849;DHT22;38714;53.180;5.812;2023-02-15T09:06:26;1.90;99.90
52849;DHT22;38714;53.180;5.812;2023-02-15T09:08:53;1.90;99.90
52849;DHT22;38714;53.180;5.812;2023-02-15T09:11:27;2.00;99.90
52849;DHT22;38714;53.180;5.812;2023-02-15T09:13:54;2.00;99.90
52849;DHT22;38714;53.180;5.812;2023-02-15T09:16:22;2.10;99.90
52849;DHT22;38714;53.180;5.812;2023-02-15T09:18:48;2.20;99.90
52849;DHT22;38714;53.180;5.812;2023-02-15T09:21:16;2.20;99.90
52849;DHT22;38714;53.180;5.812;2023-02-15T09:23:44;2.30;99.90
52849;DHT22;38714;53.180;5.812;2023-02-15T09:26:15;2.30;99.90
52849;DHT22;38714;53.180;5.812;2023-02-15T09:28:41;2.40;99.90
52849;DHT22;38714;53.180;5.812;2023-02-15T09:31:16;2.50;99.90
52849;DHT22;38714;53.180;5.812;2023-02-15T09:33:44;2.50;99.90
52849;DHT22;38714;53.180;5.812;2023-02-15T09:36:19;2.60;99.90
52849;DHT22;38714;53.180;5.812;2023-02-15T09:38:45;2.60;99.90
52849;DHT22;38714;53.180;5.812;2023-02-15T09:46:57;2.80;99.90
52849;DHT22;38714;53.180;5.812;2023-02-15T10:00:43;3.20;99.90
52849;DHT22;38714;53.180;5.812;2023-02-15T10:17:11;3.70;99.90
52849;DHT22;38714;53.180;5.812;2023-02-15T10:20:08;3.80;99.90
52849;DHT22;38714;53.180;5.812;2023-02-15T10:28:00;4.00;99.90
52849;DHT22;38714;53.180;5.812;2023-02-15T10:30:39;4.10;99.90
52849;DHT22;38714;53.180;5.812;2023-02-15T10:44:46;4.40;99.90
52849;DHT22;38714;53.180;5.812;2023-02-15T10:50:06;4.50;99.90
52849;DHT22;38714;53.180;5.812;2023-02-15T10:52:58;4.60;99.90
52849;DHT22;38714;53.180;5.812;2023-02-15T11:06:07;4.80;99.90
52849;DHT22;38714;53.180;5.812;2023-02-15T11:08:36;4.90;99.90
52849;DHT22;38714;53.180;5.812;2023-02-15T11:11:07;5.00;99.90
52849;DHT22;38714;53.180;5.812;2023-02-15T11:13:45;5.00;99.90
52849;DHT22;38714;53.180;5.812;2023-02-15T11:16:32;5.10;99.90
52849;DHT22;38714;53.180;5.812;2023-02-15T11:19:00;5.10;99.90
52849;DHT22;38714;53.180;5.812;2023-02-15T11:21:40;5.20;99.90
52849;DHT22;38714;53.180;5.812;2023-02-15T11:24:19;5.30;99.90
52849;DHT22;38714;53.180;5.812;2023-02-15T11:26:54;5.30;99.90
52849;DHT22;38714;53.180;5.812;2023-02-15T11:29:25;5.40;99.90
52849;DHT22;38714;53.180;5.812;2023-02-15T11:32:02;5.40;99.90
52849;DHT22;38714;53.180;5.812;2023-02-15T11:34:36;5.40;99.90
52849;DHT22;38714;53.180;5.812;2023-02-15T11:37:10;5.50;99.90
52849;DHT22;38714;53.180;5.812;2023-02-15T11:39:36;5.60;99.90
52849;DHT22;38714;53.180;5.812;2023-02-15T11:42:10;5.70;99.90
52849;DHT22;38714;53.180;5.812;2023-02-15T11:44:44;5.80;99.90
52849;DHT22;38714;53.180;5.812;2023-02-15T11:47:14;5.90;99.90
52849;DHT22;38714;53.180;5.812;2023-02-15T11:49:40;5.90;99.90
52849;DHT22;38714;53.180;5.812;2023-02-15T11:52:07;6.00;99.90
52849;DHT22;38714;53.180;5.812;2023-02-15T11:54:42;6.00;99.90
52849;DHT22;38714;53.180;5.812;2023-02-15T11:57:22;6.00;99.90
52849;DHT22;38714;53.180;5.812;2023-02-15T11:59:58;6.00;99.90
52849;DHT22;38714;53.180;5.812;2023-02-15T12:02:26;6.10;99.90
52849;DHT22;38714;53.180;5.812;2023-02-15T12:05:03;6.10;99.90
52849;DHT22;38714;53.180;5.812;2023-02-15T12:07:35;6.20;99.90
52849;DHT22;38714;53.180;5.812;2023-02-15T12:12:39;6.30;99.90
52849;DHT22;38714;53.180;5.812;2023-02-15T12:15:07;6.30;99.90
52849;DHT22;38714;53.180;5.812;2023-02-15T12:17:38;6.30;99.90
52849;DHT22;38714;53.180;5.812;2023-02-15T12:22:49;6.30;99.90
52849;DHT22;38714;53.180;5.812;2023-02-15T12:27:49;6.50;99.90
52849;DHT22;38714;53.180;5.812;2023-02-15T12:30:34;6.50;99.90
52849;DHT22;38714;53.180;5.812;2023-02-15T12:33:15;6.60;99.90
52849;DHT22;38714;53.180;5.812;2023-02-15T12:35:43;6.60;99.90
52849;DHT22;38714;53.180;5.812;2023-02-15T12:40:35;6.70;99.90
52849;DHT22;38714;53.180;5.812;2023-02-15T12:43:01;6.70;99.90
52849;DHT22;38714;53.180;5.812;2023-02-15T12:45:35;6.80;99.90
52849;DHT22;38714;53.180;5.812;2023-02-15T12:48:14;6.80;99.90
52849;DHT22;38714;53.180;5.812;2023-02-15T12:50:49;6.90;99.90
52849;DHT22;38714;53.180;5.812;2023-02-15T12:53:31;6.90;99.90
52849;DHT22;38714;53.180;5.812;2023-02-15T12:55:59;6.90;99.90
52849;DHT22;38714;53.180;5.812;2023-02-15T12:58:30;7.00;99.90
52849;DHT22;38714;53.180;5.812;2023-02-15T13:03:35;7.00;99.90
52849;DHT22;38714;53.180;5.812;2023-02-15T13:06:03;7.00;99.90
52849;DHT22;38714;53.180;5.812;2023-02-15T13:09:38;7.00;99.90
52849;DHT22;38714;53.180;5.812;2023-02-15T13:11:39;7.00;99.90
52849;DHT22;38714;53.180;5.812;2023-02-15T13:14:21;7.00;99.90
52849;DHT22;38714;53.180;5.812;2023-02-15T13:16:50;7.00;99.90
52849;DHT22;38714;53.180;5.812;2023-02-15T13:19:20;7.00;99.90
52849;DHT22;38714;53.180;5.812;2023-02-15T13:21:50;7.10;99.90
52849;DHT22;38714;53.180;5.812;2023-02-15T13:24:33;7.10;99.90
52849;DHT22;38714;53.180;5.812;2023-02-15T13:27:01;7.20;99.90
52849;DHT22;38714;53.180;5.812;2023-02-15T13:29:34;7.20;99.90
52849;DHT22;38714;53.180;5.812;2023-02-15T13:32:21;7.20;99.90
52849;DHT22;38714;53.180;5.812;2023-02-15T13:34:49;7.30;99.90
52849;DHT22;38714;53.180;5.812;2023-02-15T13:37:30;7.30;99.90
52849;DHT22;38714;53.180;5.812;2023-02-15T13:42:54;7.30;99.90
52849;DHT22;38714;53.180;5.812;2023-02-15T13:51:21;7.50;99.90
52849;DHT22;38714;53.180;5.812;2023-02-15T14:05:41;7.50;99.90
52849;DHT22;38714;53.180;5.812;2023-02-15T14:08:13;7.50;99.90
52849;DHT22;38714;53.180;5.812;2023-02-15T14:11:01;7.60;99.90
52849;DHT22;38714;53.180;5.812;2023-02-15T14:19:21;7.60;99.90
52849;DHT22;38714;53.180;5.812;2023-02-15T14:21:54;7.60;99.90
52849;DHT22;38714;53.180;5.812;2023-02-15T14:24:34;7.60;99.90
52849;DHT22;38714;53.180;5.812;2023-02-15T14:27:26;7.70;99.90
52849;DHT22;38714;53.180;5.812;2023-02-15T14:30:12;7.70;99.90
52849;DHT22;38714;53.180;5.812;2023-02-15T14:32:43;7.70;99.90
52849;DHT22;38714;53.180;5.812;2023-02-15T14:35:16;7.70;99.90
52849;DHT22;38714;53.180;5.812;2023-02-15T14:37:46;7.70;99.90
52849;DHT22;38714;53.180;5.812;2023-02-15T14:48:50;7.70;99.90
52849;DHT22;38714;53.180;5.812;2023-02-15T14:56:43;7.70;99.90
52849;DHT22;38714;53.180;5.812;2023-02-15T14:59:16;7.70;99.90
52849;DHT22;38714;53.180;5.812;2023-02-15T15:01:57;7.70;99.90
52849;DHT22;38714;53.180;5.812;2023-02-15T15:04:28;7.70;99.90
52849;DHT22;38714;53.180;5.812;2023-02-15T15:09:35;7.70;99.90
52849;DHT22;38714;53.180;5.812;2023-02-15T15:14:51;7.70;99.90
52849;DHT22;38714;53.180;5.812;2023-02-15T15:20:37;7.70;99.90
52849;DHT22;38714;53.180;5.812;2023-02-15T15:31:13;7.60;99.90
52849;DHT22;38714;53.180;5.812;2023-02-15T15:50:52;7.40;99.90
52849;DHT22;38714;53.180;5.812;2023-02-15T15:53:20;7.40;99.90
52849;DHT22;38714;53.180;5.812;2023-02-15T15:55:48;7.30;99.90
52849;DHT22;38714;53.180;5.812;2023-02-15T15:58:17;7.30;99.90
52849;DHT22;38714;53.180;5.812;2023-02-15T16:00:58;7.30;99.90
52849;DHT22;38714;53.180;5.812;2023-02-15T16:03:27;7.30;99.90
52849;DHT22;38714;53.180;5.812;2023-02-15T16:05:53;7.20;99.90
52849;DHT22;38714;53.180;5.812;2023-02-15T16:10:58;7.10;99.90
52849;DHT22;38714;53.180;5.812;2023-02-15T16:13:25;7.10;99.90
52849;DHT22;38714;53.180;5.812;2023-02-15T16:15:53;7.10;99.90
52849;DHT22;38714;53.180;5.812;2023-02-15T16:18:23;7.10;99.90
52849;DHT22;38714;53.180;5.812;2023-02-15T16:20:52;7.10;99.90
52849;DHT22;38714;53.180;5.812;2023-02-15T16:28:38;7.00;99.90
52849;DHT22;38714;53.180;5.812;2023-02-15T16:31:12;6.90;99.90
52849;DHT22;38714;53.180;5.812;2023-02-15T16:33:39;6.90;99.90
52849;DHT22;38714;53.180;5.812;2023-02-15T16:36:09;6.90;99.90
52849;DHT22;38714;53.180;5.812;2023-02-15T16:41:12;6.80;99.90
52849;DHT22;38714;53.180;5.812;2023-02-15T16:43:40;6.70;99.90
52849;DHT22;38714;53.180;5.812;2023-02-15T16:46:14;6.70;99.90
52849;DHT22;38714;53.180;5.812;2023-02-15T16:48:43;6.70;99.90
52849;DHT22;38714;53.180;5.812;2023-02-15T16:51:09;6.70;99.90
52849;DHT22;38714;53.180;5.812;2023-02-15T16:53:36;6.60;99.90
52849;DHT22;38714;53.180;5.812;2023-02-15T16:56:04;6.60;99.90
52849;DHT22;38714;53.180;5.812;2023-02-15T16:58:43;6.60;99.90
52849;DHT22;38714;53.180;5.812;2023-02-15T17:01:13;6.60;99.90
52849;DHT22;38714;53.180;5.812;2023-02-15T17:03:41;6.50;99.90
52849;DHT22;38714;53.180;5.812;2023-02-15T17:06:25;6.50;99.90
52849;DHT22;38714;53.180;5.812;2023-02-15T17:08:52;6.50;99.90
52849;DHT22;38714;53.180;5.812;2023-02-15T17:11:32;6.40;99.90
52849;DHT22;38714;53.180;5.812;2023-02-15T17:16:33;6.40;99.90
52849;DHT22;38714;53.180;5.812;2023-02-15T17:19:01;6.30;99.90
52849;DHT22;38714;53.180;5.812;2023-02-15T17:21:37;6.30;99.90
52849;DHT22;38714;53.180;5.812;2023-02-15T17:24:05;6.30;99.90
52849;DHT22;38714;53.180;5.812;2023-02-15T17:26:34;6.30;99.90
52849;DHT22;38714;53.180;5.812;2023-02-15T17:29:20;6.30;99.90
52849;DHT22;38714;53.180;5.812;2023-02-15T17:31:49;6.30;99.90
52849;DHT22;38714;53.180;5.812;2023-02-15T17:42:45;6.20;99.90
52849;DHT22;38714;53.180;5.812;2023-02-15T17:45:11;6.20;99.90
52849;DHT22;38714;53.180;5.812;2023-02-15T17:47:37;6.20;99.90
52849;DHT22;38714;53.180;5.812;2023-02-15T17:50:04;6.20;99.90
52849;DHT22;38714;53.180;5.812;2023-02-15T17:52:30;6.20;99.90
52849;DHT22;38714;53.180;5.812;2023-02-15T17:54:56;6.20;99.90
52849;DHT22;38714;53.180;5.812;2023-02-15T17:57:40;6.10;99.90
52849;DHT22;38714;53.180;5.812;2023-02-15T18:00:07;6.10;99.90
52849;DHT22;38714;53.180;5.812;2023-02-15T18:02:52;6.10;99.90
52849;DHT22;38714;53.180;5.812;2023-02-15T18:05:37;6.10;99.90
52849;DHT22;38714;53.180;5.812;2023-02-15T18:08:26;6.10;99.90
52849;DHT22;38714;53.180;5.812;2023-02-15T18:11:10;6.10;99.90
52849;DHT22;38714;53.180;5.812;2023-02-15T18:13:54;6.10;99.90
52849;DHT22;38714;53.180;5.812;2023-02-15T18:16:24;6.10;99.90
52849;DHT22;38714;53.180;5.812;2023-02-15T18:18:51;6.00;99.90
52849;DHT22;38714;53.180;5.812;2023-02-15T18:21:17;6.10;99.90
52849;DHT22;38714;53.180;5.812;2023-02-15T18:23:43;6.10;99.90
52849;DHT22;38714;53.180;5.812;2023-02-15T18:26:19;6.10;99.90
52849;DHT22;38714;53.180;5.812;2023-02-15T18:28:45;6.10;99.90
52849;DHT22;38714;53.180;5.812;2023-02-15T18:31:11;6.10;99.90
52849;DHT22;38714;53.180;5.812;2023-02-15T18:34:04;6.10;99.90
52849;DHT22;38714;53.180;5.812;2023-02-15T18:36:35;6.00;99.90
52849;DHT22;38714;53.180;5.812;2023-02-15T18:39:02;6.10;99.90
52849;DHT22;38714;53.180;5.812;2023-02-15T18:41:28;6.10;99.90
52849;DHT22;38714;53.180;5.812;2023-02-15T18:43:53;6.10;99.90
52849;DHT22;38714;53.180;5.812;2023-02-15T18:46:20;6.10;99.90
52849;DHT22;38714;53.180;5.812;2023-02-15T18:48:46;6.10;99.90
52849;DHT22;38714;53.180;5.812;2023-02-15T18:51:22;6.00;99.90
52849;DHT22;38714;53.180;5.812;2023-02-15T18:53:50;6.00;99.90
52849;DHT22;38714;53.180;5.812;2023-02-15T18:56:19;6.00;99.90
52849;DHT22;38714;53.180;5.812;2023-02-15T18:58:45;6.00;99.90
52849;DHT22;38714;53.180;5.812;2023-02-15T19:01:15;6.00;99.90
52849;DHT22;38714;53.180;5.812;2023-02-15T19:03:49;6.00;99.90
52849;DHT22;38714;53.180;5.812;2023-02-15T19:06:18;5.90;99.90
52849;DHT22;38714;53.180;5.812;2023-02-15T19:08:46;5.90;99.90
52849;DHT22;38714;53.180;5.812;2023-02-15T19:11:20;6.00;99.90
52849;DHT22;38714;53.180;5.812;2023-02-15T19:13:47;6.00;99.90
52849;DHT22;38714;53.180;5.812;2023-02-15T19:16:31;6.00;99.90
52849;DHT22;38714;53.180;5.812;2023-02-15T19:18:58;5.90;99.90
52849;DHT22;38714;53.180;5.812;2023-02-15T19:21:26;5.90;99.90
52849;DHT22;38714;53.180;5.812;2023-02-15T19:24:00;6.00;99.90
52849;DHT22;38714;53.180;5.812;2023-02-15T19:26:27;5.90;99.90
52849;DHT22;38714;53.180;5.812;2023-02-15T19:28:58;5.90;99.90
52849;DHT22;38714;53.180;5.812;2023-02-15T19:31:25;5.90;99.90
52849;DHT22;38714;53.180;5.812;2023-02-15T19:33:50;5.90;99.90